sensor_id;sensor_type;location;lat;lon;timestamp;pressure;altitude;pressure_sealevel;temperature;humidity
35704;BME280;21820;51.112;13.762;2024-01-11T00:01:58;100765.41;;;20.95;51.96
35704;BME280;21820;51.112;13.762;2024-01-11T00:04:24;100765.59;;;21.17;52.12
35704;BME280;21820;51.112;13.762;2024-01-11T00:06:50;100763.31;;;21.13;52.35
35704;BME280;21820;51.112;13.762;2024-01-11T00:09:15;100773.16;;;21.09;52.12
35704;BME280;21820;51.112;13.762;2024-01-11T00:11:41;100770.00;;;21.17;52.25
35704;BME280;21820;51.112;13.762;2024-01-11T00:14:06;100762.38;;;21.14;52.44
35704;BME280;21820;51.112;13.762;2024-01-11T00:16:31;100760.59;;;21.14;52.21
35704;BME280;21820;51.112;13.762;2024-01-11T00:18:57;100763.53;;;21.10;52.42
35704;BME280;21820;51.112;13.762;2024-01-11T00:21:22;100755.97;;;21.18;52.29
35704;BME280;21820;51.112;13.762;2024-01-11T00:23:48;100764.16;;;21.13;52.39
35704;BME280;21820;51.112;13.762;2024-01-11T00:26:14;100757.56;;;21.20;52.11
35704;BME280;21820;51.112;13.762;2024-01-11T00:28:39;100761.81;;;21.21;52.08
35704;BME280;21820;51.112;13.762;2024-01-11T00:31:05;100756.13;;;21.40;51.82
35704;BME280;21820;51.112;13.762;2024-01-11T00:33:30;100743.72;;;21.54;51.10
35704;BME280;21820;51.112;13.762;2024-01-11T00:35:56;100741.88;;;21.67;50.63
35704;BME280;21820;51.112;13.762;2024-01-11T00:38:21;100746.56;;;21.75;50.40
35704;BME280;21820;51.112;13.762;2024-01-11T00:40:47;100719.81;;;21.59;50.95
35704;BME280;21820;51.112;13.762;2024-01-11T00:43:12;100754.13;;;21.90;50.46
35704;BME280;21820;51.112;13.762;2024-01-11T00:45:37;100746.28;;;22.02;49.71
35704;BME280;21820;51.112;13.762;2024-01-11T00:48:03;100748.47;;;22.08;50.27
35704;BME280;21820;51.112;13.762;2024-01-11T00:50:29;100745.13;;;22.06;49.81
35704;BME280;21820;51.112;13.762;2024-01-11T00:52:54;100743.97;;;22.10;49.52
35704;BME280;21820;51.112;13.762;2024-01-11T00:55:20;100734.09;;;21.78;50.20
35704;BME280;21820;51.112;13.762;2024-01-11T00:57:45;100731.97;;;21.36;50.62
35704;BME280;21820;51.112;13.762;2024-01-11T01:00:11;100721.88;;;21.66;50.37
35704;BME280;21820;51.112;13.762;2024-01-11T01:02:39;100722.91;;;21.76;50.63
35704;BME280;21820;51.112;13.762;2024-01-11T01:05:05;100711.91;;;21.71;50.53
35704;BME280;21820;51.112;13.762;2024-01-11T01:07:31;100713.97;;;21.79;50.61
35704;BME280;21820;51.112;13.762;2024-01-11T01:09:56;100708.09;;;21.75;50.65
35704;BME280;21820;51.112;13.762;2024-01-11T01:12:22;100702.88;;;21.75;50.67
35704;BME280;21820;51.112;13.762;2024-01-11T01:14:47;100703.16;;;21.83;50.19
35704;BME280;21820;51.112;13.762;2024-01-11T01:17:12;100708.41;;;21.83;50.52
35704;BME280;21820;51.112;13.762;2024-01-11T01:19:38;100705.84;;;21.94;50.03
35704;BME280;21820;51.112;13.762;2024-01-11T01:22:03;100720.94;;;21.91;50.33
35704;BME280;21820;51.112;13.762;2024-01-11T01:24:29;100723.19;;;21.95;50.14
35704;BME280;21820;51.112;13.762;2024-01-11T01:26:55;100726.97;;;21.91;49.74
35704;BME280;21820;51.112;13.762;2024-01-11T01:29:20;100733.31;;;22.00;50.11
35704;BME280;21820;51.112;13.762;2024-01-11T01:31:46;100733.69;;;21.95;50.12
35704;BME280;21820;51.112;13.762;2024-01-11T01:34:11;100710.34;;;21.92;49.32
35704;BME280;21820;51.112;13.762;2024-01-11T01:36:37;100739.22;;;22.15;49.49
35704;BME280;21820;51.112;13.762;2024-01-11T01:39:02;100739.66;;;22.09;49.95
35704;BME280;21820;51.112;13.762;2024-01-11T01:41:28;100739.66;;;22.09;50.15
35704;BME280;21820;51.112;13.762;2024-01-11T01:43:54;100748.34;;;21.98;50.28
35704;BME280;21820;51.112;13.762;2024-01-11T01:46:22;100737.94;;;21.85;50.33
35704;BME280;21820;51.112;13.762;2024-01-11T01:48:48;100738.88;;;21.84;50.17
35704;BME280;21820;51.112;13.762;2024-01-11T01:51:14;100726.84;;;21.82;50.57
35704;BME280;21820;51.112;13.762;2024-01-11T01:53:40;100737.59;;;21.66;50.44
35704;BME280;21820;51.112;13.762;2024-01-11T01:56:06;100729.19;;;21.27;50.69
35704;BME280;21820;51.112;13.762;2024-01-11T01:58:33;100721.84;;;21.32;50.74
35704;BME280;21820;51.112;13.762;2024-01-11T02:00:58;100735.59;;;21.46;50.70
35704;BME280;21820;51.112;13.762;2024-01-11T02:03:27;100749.16;;;21.51;51.22
35704;BME280;21820;51.112;13.762;2024-01-11T02:05:54;100745.81;;;21.49;51.55
35704;BME280;21820;51.112;13.762;2024-01-11T02:08:22;100738.00;;;21.60;51.01
35704;BME280;21820;51.112;13.762;2024-01-11T02:10:51;100729.00;;;21.64;51.18
35704;BME280;21820;51.112;13.762;2024-01-11T02:13:17;100733.56;;;21.73;50.67
35704;BME280;21820;51.112;13.762;2024-01-11T02:15:44;100734.63;;;21.71;50.44
35704;BME280;21820;51.112;13.762;2024-01-11T02:18:10;100728.53;;;21.70;50.91
35704;BME280;21820;51.112;13.762;2024-01-11T02:20:35;100733.78;;;21.70;50.43
35704;BME280;21820;51.112;13.762;2024-01-11T02:23:06;100734.41;;;21.74;50.49
35704;BME280;21820;51.112;13.762;2024-01-11T02:25:33;100741.13;;;21.65;50.70
35704;BME280;21820;51.112;13.762;2024-01-11T02:27:58;100743.31;;;21.71;51.19
35704;BME280;21820;51.112;13.762;2024-01-11T02:30:24;100738.97;;;21.59;50.72
35704;BME280;21820;51.112;13.762;2024-01-11T02:32:50;100744.22;;;21.59;51.55
35704;BME280;21820;51.112;13.762;2024-01-11T02:35:16;100747.06;;;21.56;50.98
35704;BME280;21820;51.112;13.762;2024-01-11T02:37:42;100751.50;;;21.43;51.55
35704;BME280;21820;51.112;13.762;2024-01-11T02:40:09;100740.66;;;21.37;52.03
35704;BME280;21820;51.112;13.762;2024-01-11T02:42:35;100747.31;;;21.41;51.46
35704;BME280;21820;51.112;13.762;2024-01-11T02:45:02;100752.72;;;21.27;51.56
35704;BME280;21820;51.112;13.762;2024-01-11T02:47:28;100760.28;;;21.42;52.30
35704;BME280;21820;51.112;13.762;2024-01-11T02:49:53;100737.72;;;21.29;51.30
35704;BME280;21820;51.112;13.762;2024-01-11T02:52:19;100759.50;;;21.29;52.49
35704;BME280;21820;51.112;13.762;2024-01-11T02:54:44;100770.84;;;21.05;51.29
35704;BME280;21820;51.112;13.762;2024-01-11T02:57:09;100756.34;;;21.37;50.89
35704;BME280;21820;51.112;13.762;2024-01-11T02:59:36;100739.59;;;21.39;50.82
35704;BME280;21820;51.112;13.762;2024-01-11T03:02:01;100762.75;;;21.56;51.28
35704;BME280;21820;51.112;13.762;2024-01-11T03:04:26;100757.53;;;21.56;50.70
35704;BME280;21820;51.112;13.762;2024-01-11T03:06:52;100752.78;;;21.61;50.46
35704;BME280;21820;51.112;13.762;2024-01-11T03:09:17;100768.53;;;21.72;50.83
35704;BME280;21820;51.112;13.762;2024-01-11T03:11:42;100763.31;;;21.72;50.36
35704;BME280;21820;51.112;13.762;2024-01-11T03:14:08;100761.25;;;21.65;51.19
35704;BME280;21820;51.112;13.762;2024-01-11T03:16:33;100758.69;;;21.52;50.99
35704;BME280;21820;51.112;13.762;2024-01-11T03:18:59;100754.25;;;21.42;51.63
35704;BME280;21820;51.112;13.762;2024-01-11T03:21:24;100751.41;;;21.32;51.61
35704;BME280;21820;51.112;13.762;2024-01-11T03:23:50;100716.63;;;21.19;52.05
35704;BME280;21820;51.112;13.762;2024-01-11T03:26:16;100745.25;;;21.33;52.30
35704;BME280;21820;51.112;13.762;2024-01-11T03:28:42;100740.03;;;21.33;52.13
35704;BME280;21820;51.112;13.762;2024-01-11T03:31:08;100732.09;;;21.22;52.12
35704;BME280;21820;51.112;13.762;2024-01-11T03:33:34;100724.72;;;21.40;52.14
35704;BME280;21820;51.112;13.762;2024-01-11T03:35:59;100706.19;;;21.43;51.75
35704;BME280;21820;51.112;13.762;2024-01-11T03:38:25;100703.84;;;21.51;51.22
35704;BME280;21820;51.112;13.762;2024-01-11T03:40:50;100697.00;;;21.61;50.86
35704;BME280;21820;51.112;13.762;2024-01-11T03:43:17;100695.25;;;21.49;51.35
35704;BME280;21820;51.112;13.762;2024-01-11T03:45:43;100696.84;;;21.51;51.46
35704;BME280;21820;51.112;13.762;2024-01-11T03:48:08;100690.09;;;21.60;50.67
35704;BME280;21820;51.112;13.762;2024-01-11T03:50:33;100693.72;;;21.46;51.10
35704;BME280;21820;51.112;13.762;2024-01-11T03:52:59;100697.59;;;21.17;51.06
35704;BME280;21820;51.112;13.762;2024-01-11T03:55:24;100693.19;;;21.30;51.25
35704;BME280;21820;51.112;13.762;2024-01-11T03:57:51;100696.00;;;21.51;50.89
35704;BME280;21820;51.112;13.762;2024-01-11T04:00:16;100699.19;;;21.43;50.96
35704;BME280;21820;51.112;13.762;2024-01-11T04:02:42;100707.97;;;21.42;51.30
35704;BME280;21820;51.112;13.762;2024-01-11T04:05:07;100716.53;;;21.44;51.48
35704;BME280;21820;51.112;13.762;2024-01-11T04:07:33;100707.91;;;21.31;52.30
35704;BME280;21820;51.112;13.762;2024-01-11T04:09:58;100701.72;;;21.32;51.35
35704;BME280;21820;51.112;13.762;2024-01-11T04:12:24;100694.38;;;21.37;51.42
35704;BME280;21820;51.112;13.762;2024-01-11T04:14:49;100695.34;;;21.36;51.85
35704;BME280;21820;51.112;13.762;2024-01-11T04:17:15;100685.03;;;21.22;51.51
35704;BME280;21820;51.112;13.762;2024-01-11T04:19:40;100720.38;;;21.51;51.38
35704;BME280;21820;51.112;13.762;2024-01-11T04:22:05;100720.94;;;21.44;51.32
35704;BME280;21820;51.112;13.762;2024-01-11T04:24:31;100735.13;;;21.52;51.58
35704;BME280;21820;51.112;13.762;2024-01-11T04:26:56;100732.16;;;21.57;51.55
35704;BME280;21820;51.112;13.762;2024-01-11T04:29:21;100741.25;;;21.40;51.88
35704;BME280;21820;51.112;13.762;2024-01-11T04:31:47;100748.72;;;21.57;51.31
35704;BME280;21820;51.112;13.762;2024-01-11T04:34:12;100748.59;;;21.59;50.94
35704;BME280;21820;51.112;13.762;2024-01-11T04:36:37;100756.28;;;21.49;51.53
35704;BME280;21820;51.112;13.762;2024-01-11T04:39:04;100750.22;;;21.49;51.53
35704;BME280;21820;51.112;13.762;2024-01-11T04:41:29;100752.13;;;21.47;52.04
35704;BME280;21820;51.112;13.762;2024-01-11T04:43:54;100753.09;;;21.57;51.36
35704;BME280;21820;51.112;13.762;2024-01-11T04:46:21;100765.66;;;21.64;51.40
35704;BME280;21820;51.112;13.762;2024-01-11T04:48:47;100745.16;;;21.58;50.56
35704;BME280;21820;51.112;13.762;2024-01-11T04:51:15;100755.72;;;21.33;50.56
35704;BME280;21820;51.112;13.762;2024-01-11T04:53:41;100759.06;;;21.35;51.04
35704;BME280;21820;51.112;13.762;2024-01-11T04:56:07;100745.94;;;21.71;50.13
35704;BME280;21820;51.112;13.762;2024-01-11T04:58:33;100752.41;;;21.78;50.55
35704;BME280;21820;51.112;13.762;2024-01-11T05:00:59;100740.78;;;21.82;49.90
35704;BME280;21820;51.112;13.762;2024-01-11T05:03:24;100748.91;;;22.02;49.77
35704;BME280;21820;51.112;13.762;2024-01-11T05:05:50;100728.69;;;22.04;50.22
35704;BME280;21820;51.112;13.762;2024-01-11T05:08:15;100726.31;;;22.01;49.44
35704;BME280;21820;51.112;13.762;2024-01-11T05:10:40;100707.59;;;21.94;49.36
35704;BME280;21820;51.112;13.762;2024-01-11T05:13:06;100737.50;;;22.03;49.41
35704;BME280;21820;51.112;13.762;2024-01-11T05:15:31;100729.19;;;22.09;49.40
35704;BME280;21820;51.112;13.762;2024-01-11T05:17:56;100702.00;;;21.87;49.56
35704;BME280;21820;51.112;13.762;2024-01-11T05:20:22;100725.00;;;21.71;50.50
35704;BME280;21820;51.112;13.762;2024-01-11T05:22:47;100744.25;;;21.83;50.67
35704;BME280;21820;51.112;13.762;2024-01-11T05:25:12;100737.13;;;21.72;50.96
35704;BME280;21820;51.112;13.762;2024-01-11T05:27:39;100731.13;;;21.59;51.01
35704;BME280;21820;51.112;13.762;2024-01-11T05:30:05;100725.66;;;21.62;50.74
35704;BME280;21820;51.112;13.762;2024-01-11T05:32:32;100730.63;;;21.54;51.55
35704;BME280;21820;51.112;13.762;2024-01-11T05:34:57;100745.81;;;21.49;51.42
35704;BME280;21820;51.112;13.762;2024-01-11T05:37:23;100736.00;;;21.40;51.97
35704;BME280;21820;51.112;13.762;2024-01-11T05:39:48;100735.63;;;21.34;51.98
35704;BME280;21820;51.112;13.762;2024-01-11T05:42:13;100750.00;;;21.28;52.39
35704;BME280;21820;51.112;13.762;2024-01-11T05:44:39;100750.13;;;21.14;52.26
35704;BME280;21820;51.112;13.762;2024-01-11T05:47:04;100714.78;;;20.96;52.22
35704;BME280;21820;51.112;13.762;2024-01-11T05:49:30;100740.09;;;21.08;52.74
35704;BME280;21820;51.112;13.762;2024-01-11T05:51:55;100755.59;;;20.86;52.17
35704;BME280;21820;51.112;13.762;2024-01-11T05:54:21;100756.97;;;20.79;52.61
35704;BME280;21820;51.112;13.762;2024-01-11T05:56:46;100762.09;;;20.81;52.90
35704;BME280;21820;51.112;13.762;2024-01-11T05:59:12;100764.19;;;20.76;52.67
35704;BME280;21820;51.112;13.762;2024-01-11T06:01:41;100749.75;;;20.70;52.78
35704;BME280;21820;51.112;13.762;2024-01-11T06:04:09;100755.41;;;20.64;53.60
35704;BME280;21820;51.112;13.762;2024-01-11T06:06:35;100764.19;;;20.63;53.34
35704;BME280;21820;51.112;13.762;2024-01-11T06:09:00;100756.13;;;20.66;53.73
35704;BME280;21820;51.112;13.762;2024-01-11T06:11:25;100760.00;;;20.60;53.87
35704;BME280;21820;51.112;13.762;2024-01-11T06:13:50;100774.22;;;20.56;54.23
35704;BME280;21820;51.112;13.762;2024-01-11T06:16:16;100771.91;;;20.52;53.96
35704;BME280;21820;51.112;13.762;2024-01-11T06:18:41;100768.06;;;20.57;53.97
35704;BME280;21820;51.112;13.762;2024-01-11T06:21:06;100765.03;;;20.51;54.22
35704;BME280;21820;51.112;13.762;2024-01-11T06:23:32;100768.03;;;20.45;53.81
35704;BME280;21820;51.112;13.762;2024-01-11T06:25:57;100783.41;;;20.37;53.76
35704;BME280;21820;51.112;13.762;2024-01-11T06:28:22;100777.31;;;20.36;54.22
35704;BME280;21820;51.112;13.762;2024-01-11T06:30:48;100760.84;;;20.36;54.31
35704;BME280;21820;51.112;13.762;2024-01-11T06:33:13;100757.72;;;20.31;54.39
35704;BME280;21820;51.112;13.762;2024-01-11T06:35:38;100766.06;;;20.36;54.66
35704;BME280;21820;51.112;13.762;2024-01-11T06:38:05;100765.44;;;20.32;53.99
35704;BME280;21820;51.112;13.762;2024-01-11T06:40:30;100742.56;;;20.48;53.69
35704;BME280;21820;51.112;13.762;2024-01-11T06:42:55;100735.56;;;20.49;53.30
35704;BME280;21820;51.112;13.762;2024-01-11T06:45:21;100733.47;;;20.54;53.60
35704;BME280;21820;51.112;13.762;2024-01-11T06:47:46;100719.88;;;20.49;53.96
35704;BME280;21820;51.112;13.762;2024-01-11T06:50:12;100720.72;;;20.62;53.17
35704;BME280;21820;51.112;13.762;2024-01-11T06:52:38;100724.13;;;20.75;53.44
35704;BME280;21820;51.112;13.762;2024-01-11T06:55:04;100716.53;;;20.72;53.74
35704;BME280;21820;51.112;13.762;2024-01-11T06:57:34;100682.03;;;20.54;52.62
35704;BME280;21820;51.112;13.762;2024-01-11T06:59:59;100713.88;;;20.85;52.88
35704;BME280;21820;51.112;13.762;2024-01-11T07:02:25;100714.53;;;21.24;52.85
35704;BME280;21820;51.112;13.762;2024-01-11T07:04:50;100705.22;;;21.91;51.03
35704;BME280;21820;51.112;13.762;2024-01-11T07:07:15;100688.94;;;24.75;43.88
35704;BME280;21820;51.112;13.762;2024-01-11T07:09:41;100709.84;;;26.31;40.25
35704;BME280;21820;51.112;13.762;2024-01-11T07:12:06;100694.56;;;27.78;37.76
35704;BME280;21820;51.112;13.762;2024-01-11T07:14:32;100694.38;;;28.48;36.71
35704;BME280;21820;51.112;13.762;2024-01-11T07:16:58;100703.63;;;29.11;34.98
35704;BME280;21820;51.112;13.762;2024-01-11T07:19:23;100690.44;;;29.35;34.70
35704;BME280;21820;51.112;13.762;2024-01-11T07:21:48;100684.50;;;29.42;34.02
35704;BME280;21820;51.112;13.762;2024-01-11T07:24:14;100698.41;;;29.52;34.56
35704;BME280;21820;51.112;13.762;2024-01-11T07:26:40;100687.81;;;29.60;34.32
35704;BME280;21820;51.112;13.762;2024-01-11T07:29:06;100679.38;;;29.48;34.63
35704;BME280;21820;51.112;13.762;2024-01-11T07:31:31;100666.97;;;29.73;34.66
35704;BME280;21820;51.112;13.762;2024-01-11T07:33:56;100693.13;;;29.76;34.40
35704;BME280;21820;51.112;13.762;2024-01-11T07:36:22;100698.75;;;29.89;33.48
35704;BME280;21820;51.112;13.762;2024-01-11T07:38:47;100681.38;;;28.96;35.26
35704;BME280;21820;51.112;13.762;2024-01-11T07:41:13;100671.41;;;29.32;34.75
35704;BME280;21820;51.112;13.762;2024-01-11T07:43:39;100683.22;;;29.70;34.33
35704;BME280;21820;51.112;13.762;2024-01-11T07:46:05;100673.25;;;29.96;33.37
35704;BME280;21820;51.112;13.762;2024-01-11T07:48:32;100677.53;;;30.05;33.55
35704;BME280;21820;51.112;13.762;2024-01-11T07:50:59;100680.22;;;29.81;34.07
35704;BME280;21820;51.112;13.762;2024-01-11T07:53:24;100680.53;;;29.94;34.04
35704;BME280;21820;51.112;13.762;2024-01-11T07:55:51;100686.31;;;29.97;34.09
35704;BME280;21820;51.112;13.762;2024-01-11T07:58:16;100701.91;;;30.00;34.49
35704;BME280;21820;51.112;13.762;2024-01-11T08:00:41;100703.53;;;30.17;33.51
35704;BME280;21820;51.112;13.762;2024-01-11T08:03:07;100716.63;;;30.19;33.49
35704;BME280;21820;51.112;13.762;2024-01-11T08:05:33;100724.28;;;30.30;33.90
35704;BME280;21820;51.112;13.762;2024-01-11T08:07:59;100718.13;;;30.13;33.93
35704;BME280;21820;51.112;13.762;2024-01-11T08:10:27;100724.09;;;30.39;33.65
35704;BME280;21820;51.112;13.762;2024-01-11T08:12:52;100708.19;;;30.39;33.51
35704;BME280;21820;51.112;13.762;2024-01-11T08:15:18;100691.78;;;30.28;34.37
35704;BME280;21820;51.112;13.762;2024-01-11T08:17:44;100673.19;;;30.12;34.13
35704;BME280;21820;51.112;13.762;2024-01-11T08:20:10;100695.88;;;30.38;33.72
35704;BME280;21820;51.112;13.762;2024-01-11T08:22:36;100706.00;;;30.35;34.21
35704;BME280;21820;51.112;13.762;2024-01-11T08:25:02;100704.88;;;30.13;34.34
35704;BME280;21820;51.112;13.762;2024-01-11T08:27:30;100697.13;;;29.80;35.02
35704;BME280;21820;51.112;13.762;2024-01-11T08:29:56;100705.97;;;29.22;35.66
35704;BME280;21820;51.112;13.762;2024-01-11T08:32:22;100717.44;;;28.89;36.09
35704;BME280;21820;51.112;13.762;2024-01-11T08:34:47;100702.78;;;28.69;36.58
35704;BME280;21820;51.112;13.762;2024-01-11T08:37:12;100703.38;;;29.63;34.75
35704;BME280;21820;51.112;13.762;2024-01-11T08:39:37;100698.91;;;29.95;34.66
35704;BME280;21820;51.112;13.762;2024-01-11T08:42:03;100687.97;;;30.14;33.79
35704;BME280;21820;51.112;13.762;2024-01-11T08:44:29;100693.13;;;30.24;33.67
35704;BME280;21820;51.112;13.762;2024-01-11T08:46:56;100697.72;;;30.22;33.77
35704;BME280;21820;51.112;13.762;2024-01-11T08:49:22;100707.34;;;30.39;33.33
35704;BME280;21820;51.112;13.762;2024-01-11T08:51:48;100710.97;;;30.38;33.72
35704;BME280;21820;51.112;13.762;2024-01-11T08:54:13;100686.97;;;30.15;34.23
35704;BME280;21820;51.112;13.762;2024-01-11T08:56:44;100691.09;;;30.10;33.92
35704;BME280;21820;51.112;13.762;2024-01-11T08:59:09;100679.81;;;30.32;33.99
35704;BME280;21820;51.112;13.762;2024-01-11T09:01:35;100680.69;;;30.24;34.08
35704;BME280;21820;51.112;13.762;2024-01-11T09:04:01;100698.41;;;30.16;34.57
35704;BME280;21820;51.112;13.762;2024-01-11T09:06:27;100692.78;;;30.27;33.98
35704;BME280;21820;51.112;13.762;2024-01-11T09:08:52;100698.38;;;30.40;34.21
35704;BME280;21820;51.112;13.762;2024-01-11T09:11:18;100673.00;;;30.21;34.48
35704;BME280;21820;51.112;13.762;2024-01-11T09:13:43;100701.53;;;30.35;34.41
35704;BME280;21820;51.112;13.762;2024-01-11T09:16:09;100713.94;;;30.43;34.26
35704;BME280;21820;51.112;13.762;2024-01-11T09:18:34;100707.19;;;30.32;34.81
35704;BME280;21820;51.112;13.762;2024-01-11T09:21:00;100703.00;;;30.54;33.48
35704;BME280;21820;51.112;13.762;2024-01-11T09:23:25;100702.66;;;30.49;33.95
35704;BME280;21820;51.112;13.762;2024-01-11T09:25:51;100680.50;;;30.34;34.46
35704;BME280;21820;51.112;13.762;2024-01-11T09:28:16;100702.00;;;30.47;34.04
35704;BME280;21820;51.112;13.762;2024-01-11T09:30:41;100701.75;;;30.26;34.60
35704;BME280;21820;51.112;13.762;2024-01-11T09:33:07;100702.84;;;30.47;34.06
35704;BME280;21820;51.112;13.762;2024-01-11T09:35:32;100710.94;;;30.54;33.84
35704;BME280;21820;51.112;13.762;2024-01-11T09:37:57;100712.13;;;30.43;33.80
35704;BME280;21820;51.112;13.762;2024-01-11T09:40:23;100717.94;;;30.47;33.72
35704;BME280;21820;51.112;13.762;2024-01-11T09:42:48;100717.63;;;30.34;34.27
35704;BME280;21820;51.112;13.762;2024-01-11T09:45:15;100729.22;;;30.33;33.84
35704;BME280;21820;51.112;13.762;2024-01-11T09:47:41;100725.44;;;30.27;34.44
35704;BME280;21820;51.112;13.762;2024-01-11T09:50:07;100724.75;;;30.41;34.10
35704;BME280;21820;51.112;13.762;2024-01-11T09:52:33;100707.00;;;30.42;33.57
35704;BME280;21820;51.112;13.762;2024-01-11T09:54:59;100712.59;;;30.55;33.99
35704;BME280;21820;51.112;13.762;2024-01-11T09:57:28;100701.69;;;30.42;34.60
35704;BME280;21820;51.112;13.762;2024-01-11T09:59:55;100698.31;;;30.64;33.79
35704;BME280;21820;51.112;13.762;2024-01-11T10:02:22;100691.44;;;30.15;30.09
35704;BME280;21820;51.112;13.762;2024-01-11T10:04:48;100690.00;;;29.96;30.09
35704;BME280;21820;51.112;13.762;2024-01-11T10:07:16;100701.41;;;29.89;31.27
35704;BME280;21820;51.112;13.762;2024-01-11T10:09:44;100687.50;;;29.95;31.08
35704;BME280;21820;51.112;13.762;2024-01-11T10:12:10;100688.84;;;29.83;31.40
35704;BME280;21820;51.112;13.762;2024-01-11T10:14:35;100697.06;;;29.64;31.79
35704;BME280;21820;51.112;13.762;2024-01-11T10:17:00;100688.78;;;29.51;29.65
35704;BME280;21820;51.112;13.762;2024-01-11T10:19:26;100679.19;;;29.42;30.19
35704;BME280;21820;51.112;13.762;2024-01-11T10:21:52;100673.06;;;29.49;30.37
35704;BME280;21820;51.112;13.762;2024-01-11T10:24:20;100678.06;;;29.60;30.63
35704;BME280;21820;51.112;13.762;2024-01-11T10:26:45;100678.06;;;29.76;30.53
35704;BME280;21820;51.112;13.762;2024-01-11T10:29:11;100662.34;;;29.67;31.00
35704;BME280;21820;51.112;13.762;2024-01-11T10:31:38;100661.31;;;29.60;31.11
35704;BME280;21820;51.112;13.762;2024-01-11T10:34:04;100656.03;;;29.68;31.20
35704;BME280;21820;51.112;13.762;2024-01-11T10:36:32;100667.91;;;29.64;31.22
35704;BME280;21820;51.112;13.762;2024-01-11T10:39:01;100665.78;;;29.75;30.79
35704;BME280;21820;51.112;13.762;2024-01-11T10:41:32;100650.56;;;29.69;31.25
35704;BME280;21820;51.112;13.762;2024-01-11T10:44:01;100643.06;;;29.89;31.54
35704;BME280;21820;51.112;13.762;2024-01-11T10:46:28;100644.19;;;30.10;31.73
35704;BME280;21820;51.112;13.762;2024-01-11T10:48:55;100639.03;;;30.25;31.71
35704;BME280;21820;51.112;13.762;2024-01-11T10:51:22;100641.66;;;30.33;32.04
35704;BME280;21820;51.112;13.762;2024-01-11T10:53:49;100651.28;;;30.34;31.92
35704;BME280;21820;51.112;13.762;2024-01-11T10:56:16;100644.34;;;30.25;32.40
35704;BME280;21820;51.112;13.762;2024-01-11T10:58:43;100640.28;;;30.45;31.80
35704;BME280;21820;51.112;13.762;2024-01-11T11:01:09;100645.00;;;30.27;32.41
35704;BME280;21820;51.112;13.762;2024-01-11T11:03:36;100630.03;;;30.42;32.14
35704;BME280;21820;51.112;13.762;2024-01-11T11:06:02;100626.19;;;30.44;32.64
35704;BME280;21820;51.112;13.762;2024-01-11T11:08:29;100625.25;;;30.37;32.74
35704;BME280;21820;51.112;13.762;2024-01-11T11:10:58;100634.63;;;30.48;33.34
35704;BME280;21820;51.112;13.762;2024-01-11T11:13:24;100621.94;;;30.35;33.44
35704;BME280;21820;51.112;13.762;2024-01-11T11:15:50;100618.47;;;30.27;33.50
35704;BME280;21820;51.112;13.762;2024-01-11T11:18:17;100618.31;;;30.20;33.87
35704;BME280;21820;51.112;13.762;2024-01-11T11:20:43;100619.44;;;30.34;33.14
35704;BME280;21820;51.112;13.762;2024-01-11T11:23:11;100617.72;;;30.49;33.48
35704;BME280;21820;51.112;13.762;2024-01-11T11:25:38;100599.09;;;30.57;33.13
35704;BME280;21820;51.112;13.762;2024-01-11T11:28:04;100594.88;;;30.71;32.97
35704;BME280;21820;51.112;13.762;2024-01-11T11:30:31;100570.31;;;30.46;33.31
35704;BME280;21820;51.112;13.762;2024-01-11T11:32:56;100571.50;;;30.66;32.89
35704;BME280;21820;51.112;13.762;2024-01-11T11:35:25;100587.44;;;30.66;33.10
35704;BME280;21820;51.112;13.762;2024-01-11T11:37:55;100585.44;;;30.68;33.33
35704;BME280;21820;51.112;13.762;2024-01-11T11:40:32;100588.63;;;30.63;33.97
35704;BME280;21820;51.112;13.762;2024-01-11T11:42:58;100588.00;;;30.53;33.61
35704;BME280;21820;51.112;13.762;2024-01-11T11:45:25;100584.00;;;30.57;33.80
35704;BME280;21820;51.112;13.762;2024-01-11T11:47:51;100577.22;;;30.55;34.11
35704;BME280;21820;51.112;13.762;2024-01-11T11:50:16;100575.09;;;30.81;33.69
35704;BME280;21820;51.112;13.762;2024-01-11T11:52:42;100588.38;;;30.73;33.44
35704;BME280;21820;51.112;13.762;2024-01-11T11:55:09;100600.19;;;30.71;33.45
35704;BME280;21820;51.112;13.762;2024-01-11T11:57:35;100593.16;;;30.86;33.64
35704;BME280;21820;51.112;13.762;2024-01-11T12:00:02;100591.81;;;30.59;34.13
35704;BME280;21820;51.112;13.762;2024-01-11T12:02:32;100587.66;;;30.56;34.38
35704;BME280;21820;51.112;13.762;2024-01-11T12:04:57;100582.09;;;30.43;34.55
35704;BME280;21820;51.112;13.762;2024-01-11T12:07:22;100574.56;;;30.55;33.88
35704;BME280;21820;51.112;13.762;2024-01-11T12:09:49;100582.28;;;30.64;34.59
35704;BME280;21820;51.112;13.762;2024-01-11T12:12:15;100581.81;;;30.61;34.18
35704;BME280;21820;51.112;13.762;2024-01-11T12:14:42;100573.09;;;30.83;33.41
35704;BME280;21820;51.112;13.762;2024-01-11T12:17:08;100569.44;;;30.84;33.88
35704;BME280;21820;51.112;13.762;2024-01-11T12:19:34;100568.13;;;30.80;34.35
35704;BME280;21820;51.112;13.762;2024-01-11T12:21:59;100577.13;;;30.79;34.05
35704;BME280;21820;51.112;13.762;2024-01-11T12:24:25;100568.00;;;30.96;33.84
35704;BME280;21820;51.112;13.762;2024-01-11T12:26:50;100563.41;;;30.90;33.76
35704;BME280;21820;51.112;13.762;2024-01-11T12:29:19;100554.31;;;30.85;33.84
35704;BME280;21820;51.112;13.762;2024-01-11T12:31:45;100551.38;;;31.02;33.95
35704;BME280;21820;51.112;13.762;2024-01-11T12:34:11;100524.72;;;30.96;33.46